sensor_id;sensor_type;location;lat;lon;timestamp;temperature;humidity
9800;DHT22;4939;52.00085300;4.17406100;2023-03-30T00:00:55;14.10;99.90
9800;DHT22;4939;52.00085300;4.17406100;2023-03-30T00:03:21;14.10;99.90
9800;DHT22;4939;52.00085300;4.17406100;2023-03-30T00:05:49;14.10;99.90
9800;DHT22;4939;52.00085300;4.17406100;2023-03-30T00:08:17;14.20;99.90
9800;DHT22;4939;52.00085300;4.17406100;2023-03-30T00:10:44;14.20;99.90
9800;DHT22;4939;52.00085300;4.17406100;2023-03-30T00:13:11;14.10;99.90
9800;DHT22;4939;52.00085300;4.17406100;2023-03-30T00:15:38;14.10;99.90
9800;DHT22;4939;52.00085300;4.17406100;2023-03-30T00:18:04;14.00;99.90
9800;DHT22;4939;52.00085300;4.17406100;2023-03-30T00:20:30;13.90;99.90
9800;DHT22;4939;52.00085300;4.17406100;2023-03-30T00:22:59;13.90;99.90
9800;DHT22;4939;52.00085300;4.17406100;2023-03-30T00:25:25;13.80;99.90
9800;DHT22;4939;52.00085300;4.17406100;2023-03-30T00:27:51;13.80;99.90
9800;DHT22;4939;52.00085300;4.17406100;2023-03-30T00:30:17;13.70;99.90
9800;DHT22;4939;52.00085300;4.17406100;2023-03-30T00:32:44;13.60;99.90
9800;DHT22;4939;52.00085300;4.17406100;2023-03-30T00:35:12;13.60;99.90
9800;DHT22;4939;52.00085300;4.17406100;2023-03-30T00:37:39;13.60;99.90
9800;DHT22;4939;52.00085300;4.17406100;2023-03-30T00:40:08;13.60;99.90
9800;DHT22;4939;52.00085300;4.17406100;2023-03-30T00:42:35;13.50;99.90
9800;DHT22;4939;52.00085300;4.17406100;2023-03-30T00:47:40;13.30;99.90
9800;DHT22;4939;52.00085300;4.17406100;2023-03-30T00:50:08;13.20;99.90
9800;DHT22;4939;52.00085300;4.17406100;2023-03-30T00:52:35;13.20;99.90
9800;DHT22;4939;52.00085300;4.17406100;2023-03-30T00:55:04;13.20;99.90
9800;DHT22;4939;52.00085300;4.17406100;2023-03-30T00:57:34;13.30;99.90
9800;DHT22;4939;52.00085300;4.17406100;2023-03-30T01:00:00;13.30;99.90
9800;DHT22;4939;52.00085300;4.17406100;2023-03-30T01:02:28;13.30;99.90
9800;DHT22;4939;52.00085300;4.17406100;2023-03-30T01:04:57;13.30;99.90
9800;DHT22;4939;52.00085300;4.17406100;2023-03-30T01:07:23;13.30;99.90
9800;DHT22;4939;52.00085300;4.17406100;2023-03-30T01:09:50;13.30;99.90
9800;DHT22;4939;52.00085300;4.17406100;2023-03-30T01:12:18;13.30;99.90
9800;DHT22;4939;52.00085300;4.17406100;2023-03-30T01:14:44;13.30;99.90
9800;DHT22;4939;52.00085300;4.17406100;2023-03-30T01:17:28;13.30;99.90
9800;DHT22;4939;52.00085300;4.17406100;2023-03-30T01:20:29;13.20;99.90
9800;DHT22;4939;52.00085300;4.17406100;2023-03-30T01:28:45;13.20;99.90
9800;DHT22;4939;52.00085300;4.17406100;2023-03-30T01:32:29;13.10;99.90
9800;DHT22;4939;52.00085300;4.17406100;2023-03-30T01:34:42;13.00;99.90
9800;DHT22;4939;52.00085300;4.17406100;2023-03-30T01:40:17;12.90;99.90
9800;DHT22;4939;52.00085300;4.17406100;2023-03-30T01:43:16;12.90;99.90
9800;DHT22;4939;52.00085300;4.17406100;2023-03-30T01:48:25;12.80;99.90
9800;DHT22;4939;52.00085300;4.17406100;2023-03-30T01:51:04;13.60;99.90
9800;DHT22;4939;52.00085300;4.17406100;2023-03-30T01:53:31;12.70;99.90
9800;DHT22;4939;52.00085300;4.17406100;2023-03-30T01:56:18;12.70;99.90
9800;DHT22;4939;52.00085300;4.17406100;2023-03-30T01:58:52;12.70;99.90
9800;DHT22;4939;52.00085300;4.17406100;2023-03-30T02:01:20;12.70;99.90
9800;DHT22;4939;52.00085300;4.17406100;2023-03-30T02:03:49;12.70;99.90
9800;DHT22;4939;52.00085300;4.17406100;2023-03-30T02:06:30;12.70;99.90
9800;DHT22;4939;52.00085300;4.17406100;2023-03-30T02:09:06;12.80;99.90
9800;DHT22;4939;52.00085300;4.17406100;2023-03-30T02:11:33;12.80;99.90
9800;DHT22;4939;52.00085300;4.17406100;2023-03-30T02:14:01;12.80;99.90
9800;DHT22;4939;52.00085300;4.17406100;2023-03-30T02:16:38;12.80;99.90
9800;DHT22;4939;52.00085300;4.17406100;2023-03-30T02:19:07;13.00;99.90
9800;DHT22;4939;52.00085300;4.17406100;2023-03-30T02:21:33;12.90;99.90
9800;DHT22;4939;52.00085300;4.17406100;2023-03-30T02:24:01;12.90;99.90
9800;DHT22;4939;52.00085300;4.17406100;2023-03-30T02:26:28;13.00;99.90
9800;DHT22;4939;52.00085300;4.17406100;2023-03-30T02:28:54;13.00;99.90
9800;DHT22;4939;52.00085300;4.17406100;2023-03-30T02:31:20;13.00;99.90
9800;DHT22;4939;52.00085300;4.17406100;2023-03-30T02:34:11;12.90;99.90
9800;DHT22;4939;52.00085300;4.17406100;2023-03-30T02:40:06;12.90;99.90
9800;DHT22;4939;52.00085300;4.17406100;2023-03-30T02:54:40;13.00;99.90
9800;DHT22;4939;52.00085300;4.17406100;2023-03-30T03:00:01;13.30;99.90
9800;DHT22;4939;52.00085300;4.17406100;2023-03-30T03:02:41;13.50;99.90
9800;DHT22;4939;52.00085300;4.17406100;2023-03-30T03:05:10;13.50;99.90
9800;DHT22;4939;52.00085300;4.17406100;2023-03-30T03:07:37;13.50;99.90
9800;DHT22;4939;52.00085300;4.17406100;2023-03-30T03:10:04;13.40;99.90
9800;DHT22;4939;52.00085300;4.17406100;2023-03-30T03:12:34;13.40;99.90
9800;DHT22;4939;52.00085300;4.17406100;2023-03-30T03:15:02;13.20;99.90
9800;DHT22;4939;52.00085300;4.17406100;2023-03-30T03:17:30;13.20;99.90
9800;DHT22;4939;52.00085300;4.17406100;2023-03-30T03:20:08;13.10;99.90
9800;DHT22;4939;52.00085300;4.17406100;2023-03-30T03:22:35;13.10;99.90
9800;DHT22;4939;52.00085300;4.17406100;2023-03-30T03:25:03;12.90;99.90
9800;DHT22;4939;52.00085300;4.17406100;2023-03-30T03:27:31;12.90;99.90
9800;DHT22;4939;52.00085300;4.17406100;2023-03-30T03:29:56;12.80;99.90
9800;DHT22;4939;52.00085300;4.17406100;2023-03-30T03:32:23;12.70;99.90
9800;DHT22;4939;52.00085300;4.17406100;2023-03-30T03:34:48;12.70;99.90
9800;DHT22;4939;52.00085300;4.17406100;2023-03-30T03:37:14;12.60;99.90
9800;DHT22;4939;52.00085300;4.17406100;2023-03-30T03:39:41;14.40;99.90
9800;DHT22;4939;52.00085300;4.17406100;2023-03-30T03:42:07;12.60;99.90
9800;DHT22;4939;52.00085300;4.17406100;2023-03-30T03:44:32;14.00;99.90
9800;DHT22;4939;52.00085300;4.17406100;2023-03-30T03:46:58;12.50;99.90
9800;DHT22;4939;52.00085300;4.17406100;2023-03-30T03:49:25;12.50;99.90
9800;DHT22;4939;52.00085300;4.17406100;2023-03-30T03:51:50;12.50;99.90
9800;DHT22;4939;52.00085300;4.17406100;2023-03-30T03:54:21;12.40;99.90
9800;DHT22;4939;52.00085300;4.17406100;2023-03-30T03:56:48;12.30;99.90
9800;DHT22;4939;52.00085300;4.17406100;2023-03-30T03:59:13;12.30;99.90
9800;DHT22;4939;52.00085300;4.17406100;2023-03-30T04:01:39;12.30;99.90
9800;DHT22;4939;52.00085300;4.17406100;2023-03-30T04:04:05;12.20;99.90
9800;DHT22;4939;52.00085300;4.17406100;2023-03-30T04:06:32;12.20;99.90
9800;DHT22;4939;52.00085300;4.17406100;2023-03-30T04:08:59;12.10;99.90
9800;DHT22;4939;52.00085300;4.17406100;2023-03-30T04:11:27;12.10;99.90
9800;DHT22;4939;52.00085300;4.17406100;2023-03-30T04:13:53;12.10;99.90
9800;DHT22;4939;52.00085300;4.17406100;2023-03-30T04:16:19;12.00;99.90
9800;DHT22;4939;52.00085300;4.17406100;2023-03-30T04:18:45;12.10;99.90
9800;DHT22;4939;52.00085300;4.17406100;2023-03-30T04:21:11;12.00;99.90
9800;DHT22;4939;52.00085300;4.17406100;2023-03-30T04:23:39;12.00;99.90
9800;DHT22;4939;52.00085300;4.17406100;2023-03-30T04:26:10;11.90;99.90
9800;DHT22;4939;52.00085300;4.17406100;2023-03-30T04:28:38;11.90;99.90
9800;DHT22;4939;52.00085300;4.17406100;2023-03-30T04:31:06;11.90;99.90
9800;DHT22;4939;52.00085300;4.17406100;2023-03-30T04:33:35;11.80;99.90
9800;DHT22;4939;52.00085300;4.17406100;2023-03-30T04:36:03;11.70;99.90
9800;DHT22;4939;52.00085300;4.17406100;2023-03-30T04:38:29;11.70;99.90
9800;DHT22;4939;52.00085300;4.17406100;2023-03-30T04:40:55;11.60;99.90
9800;DHT22;4939;52.00085300;4.17406100;2023-03-30T04:43:22;11.60;99.90
9800;DHT22;4939;52.00085300;4.17406100;2023-03-30T04:45:54;11.50;99.90
9800;DHT22;4939;52.00085300;4.17406100;2023-03-30T04:48:21;11.50;99.90
9800;DHT22;4939;52.00085300;4.17406100;2023-03-30T04:50:49;11.50;99.90
9800;DHT22;4939;52.00085300;4.17406100;2023-03-30T04:53:16;11.50;99.90
9800;DHT22;4939;52.00085300;4.17406100;2023-03-30T04:55:47;11.50;99.90
9800;DHT22;4939;52.00085300;4.17406100;2023-03-30T04:58:13;11.40;99.90
9800;DHT22;4939;52.00085300;4.17406100;2023-03-30T05:00:39;11.40;99.90
9800;DHT22;4939;52.00085300;4.17406100;2023-03-30T05:03:05;11.40;99.90
9800;DHT22;4939;52.00085300;4.17406100;2023-03-30T05:05:31;11.40;99.90
9800;DHT22;4939;52.00085300;4.17406100;2023-03-30T05:07:57;11.30;99.90
9800;DHT22;4939;52.00085300;4.17406100;2023-03-30T05:10:23;11.30;99.90
9800;DHT22;4939;52.00085300;4.17406100;2023-03-30T05:12:48;11.20;99.90
9800;DHT22;4939;52.00085300;4.17406100;2023-03-30T05:15:14;11.20;99.90
9800;DHT22;4939;52.00085300;4.17406100;2023-03-30T05:17:40;11.20;99.90
9800;DHT22;4939;52.00085300;4.17406100;2023-03-30T05:20:06;11.10;99.90
9800;DHT22;4939;52.00085300;4.17406100;2023-03-30T05:22:35;11.10;99.90
9800;DHT22;4939;52.00085300;4.17406100;2023-03-30T05:25:03;11.10;99.90
9800;DHT22;4939;52.00085300;4.17406100;2023-03-30T05:27:29;11.00;99.90
9800;DHT22;4939;52.00085300;4.17406100;2023-03-30T05:29:54;11.10;99.90
9800;DHT22;4939;52.00085300;4.17406100;2023-03-30T05:32:20;11.10;99.90
9800;DHT22;4939;52.00085300;4.17406100;2023-03-30T05:34:46;11.10;99.90
9800;DHT22;4939;52.00085300;4.17406100;2023-03-30T05:37:13;11.20;99.90
9800;DHT22;4939;52.00085300;4.17406100;2023-03-30T05:39:38;11.20;99.90
9800;DHT22;4939;52.00085300;4.17406100;2023-03-30T05:42:04;11.20;99.90
9800;DHT22;4939;52.00085300;4.17406100;2023-03-30T05:44:30;11.10;99.90
9800;DHT22;4939;52.00085300;4.17406100;2023-03-30T05:46:56;11.10;99.90
9800;DHT22;4939;52.00085300;4.17406100;2023-03-30T05:49:21;11.20;99.90
9800;DHT22;4939;52.00085300;4.17406100;2023-03-30T05:51:47;11.20;99.90
9800;DHT22;4939;52.00085300;4.17406100;2023-03-30T05:54:13;11.20;99.90
9800;DHT22;4939;52.00085300;4.17406100;2023-03-30T05:56:39;11.20;99.90
9800;DHT22;4939;52.00085300;4.17406100;2023-03-30T05:59:07;11.20;99.90
9800;DHT22;4939;52.00085300;4.17406100;2023-03-30T06:01:33;11.20;99.90
9800;DHT22;4939;52.00085300;4.17406100;2023-03-30T06:03:59;11.20;99.90
9800;DHT22;4939;52.00085300;4.17406100;2023-03-30T06:06:25;11.20;99.90
9800;DHT22;4939;52.00085300;4.17406100;2023-03-30T06:08:51;11.20;99.90
9800;DHT22;4939;52.00085300;4.17406100;2023-03-30T06:11:18;11.10;99.90
9800;DHT22;4939;52.00085300;4.17406100;2023-03-30T06:13:43;11.20;99.90
9800;DHT22;4939;52.00085300;4.17406100;2023-03-30T06:16:10;11.20;99.90
9800;DHT22;4939;52.00085300;4.17406100;2023-03-30T06:18:36;11.20;99.90
9800;DHT22;4939;52.00085300;4.17406100;2023-03-30T06:21:05;11.20;99.90
9800;DHT22;4939;52.00085300;4.17406100;2023-03-30T06:23:34;11.20;99.90
9800;DHT22;4939;52.00085300;4.17406100;2023-03-30T06:26:02;11.10;99.90
9800;DHT22;4939;52.00085300;4.17406100;2023-03-30T06:28:28;11.10;99.90
9800;DHT22;4939;52.00085300;4.17406100;2023-03-30T06:30:54;11.10;99.90
9800;DHT22;4939;52.00085300;4.17406100;2023-03-30T06:33:20;11.10;99.90
9800;DHT22;4939;52.00085300;4.17406100;2023-03-30T06:35:49;11.10;99.90
9800;DHT22;4939;52.00085300;4.17406100;2023-03-30T06:38:15;11.20;99.90
9800;DHT22;4939;52.00085300;4.17406100;2023-03-30T06:40:42;11.20;99.90
9800;DHT22;4939;52.00085300;4.17406100;2023-03-30T06:43:14;11.20;99.90
9800;DHT22;4939;52.00085300;4.17406100;2023-03-30T06:45:55;11.10;99.90
9800;DHT22;4939;52.00085300;4.17406100;2023-03-30T06:48:22;11.20;99.90
9800;DHT22;4939;52.00085300;4.17406100;2023-03-30T06:50:52;11.20;99.90
9800;DHT22;4939;52.00085300;4.17406100;2023-03-30T06:53:19;11.30;99.90
9800;DHT22;4939;52.00085300;4.17406100;2023-03-30T06:55:56;11.40;99.90
9800;DHT22;4939;52.00085300;4.17406100;2023-03-30T06:58:24;11.50;99.90
9800;DHT22;4939;52.00085300;4.17406100;2023-03-30T07:00:50;11.50;99.90
9800;DHT22;4939;52.00085300;4.17406100;2023-03-30T07:03:18;11.50;99.90
9800;DHT22;4939;52.00085300;4.17406100;2023-03-30T07:05:49;11.50;99.90
9800;DHT22;4939;52.00085300;4.17406100;2023-03-30T07:08:15;11.50;99.90
9800;DHT22;4939;52.00085300;4.17406100;2023-03-30T07:10:41;11.50;99.90
9800;DHT22;4939;52.00085300;4.17406100;2023-03-30T07:13:07;11.50;99.90
9800;DHT22;4939;52.00085300;4.17406100;2023-03-30T07:15:33;11.50;99.90
9800;DHT22;4939;52.00085300;4.17406100;2023-03-30T07:17:59;11.50;99.90
9800;DHT22;4939;52.00085300;4.17406100;2023-03-30T07:20:26;11.50;99.90
9800;DHT22;4939;52.00085300;4.17406100;2023-03-30T07:22:52;11.30;99.90
9800;DHT22;4939;52.00085300;4.17406100;2023-03-30T07:25:17;11.30;99.90
9800;DHT22;4939;52.00085300;4.17406100;2023-03-30T07:27:43;11.30;99.90
9800;DHT22;4939;52.00085300;4.17406100;2023-03-30T07:30:11;11.30;99.90
9800;DHT22;4939;52.00085300;4.17406100;2023-03-30T07:32:36;11.30;99.90
9800;DHT22;4939;52.00085300;4.17406100;2023-03-30T07:35:03;11.30;99.90
9800;DHT22;4939;52.00085300;4.17406100;2023-03-30T07:37:28;11.20;99.90
9800;DHT22;4939;52.00085300;4.17406100;2023-03-30T07:39:55;11.20;99.90
9800;DHT22;4939;52.00085300;4.17406100;2023-03-30T07:42:21;11.30;99.90
9800;DHT22;4939;52.00085300;4.17406100;2023-03-30T07:44:47;11.20;99.90
9800;DHT22;4939;52.00085300;4.17406100;2023-03-30T07:47:13;11.30;99.90
9800;DHT22;4939;52.00085300;4.17406100;2023-03-30T07:49:40;11.30;99.90
9800;DHT22;4939;52.00085300;4.17406100;2023-03-30T07:52:06;11.40;99.90
9800;DHT22;4939;52.00085300;4.17406100;2023-03-30T07:54:33;11.50;99.90
9800;DHT22;4939;52.00085300;4.17406100;2023-03-30T07:56:58;11.50;99.90
9800;DHT22;4939;52.00085300;4.17406100;2023-03-30T07:59:24;11.60;99.90
9800;DHT22;4939;52.00085300;4.17406100;2023-03-30T08:01:50;11.60;99.90
9800;DHT22;4939;52.00085300;4.17406100;2023-03-30T08:04:17;11.70;99.90
9800;DHT22;4939;52.00085300;4.17406100;2023-03-30T08:06:44;11.80;99.90
9800;DHT22;4939;52.00085300;4.17406100;2023-03-30T08:09:10;11.70;99.90
9800;DHT22;4939;52.00085300;4.17406100;2023-03-30T08:11:38;11.90;99.90
9800;DHT22;4939;52.00085300;4.17406100;2023-03-30T08:14:04;11.90;99.90
9800;DHT22;4939;52.00085300;4.17406100;2023-03-30T08:16:31;11.90;99.90
9800;DHT22;4939;52.00085300;4.17406100;2023-03-30T08:18:57;11.90;99.90
9800;DHT22;4939;52.00085300;4.17406100;2023-03-30T08:21:24;11.90;99.90
9800;DHT22;4939;52.00085300;4.17406100;2023-03-30T08:23:54;11.90;99.90
9800;DHT22;4939;52.00085300;4.17406100;2023-03-30T08:26:24;12.00;99.90
9800;DHT22;4939;52.00085300;4.17406100;2023-03-30T08:28:50;12.10;99.90
9800;DHT22;4939;52.00085300;4.17406100;2023-03-30T08:31:17;12.20;99.90
9800;DHT22;4939;52.00085300;4.17406100;2023-03-30T08:33:49;12.20;99.90
9800;DHT22;4939;52.00085300;4.17406100;2023-03-30T08:36:15;12.20;99.90
9800;DHT22;4939;52.00085300;4.17406100;2023-03-30T08:38:41;12.40;99.90
9800;DHT22;4939;52.00085300;4.17406100;2023-03-30T08:44:56;12.40;99.90
9800;DHT22;4939;52.00085300;4.17406100;2023-03-30T08:47:13;12.40;99.90
9800;DHT22;4939;52.00085300;4.17406100;2023-03-30T08:49:54;12.40;99.90
9800;DHT22;4939;52.00085300;4.17406100;2023-03-30T08:52:23;12.40;99.90
9800;DHT22;4939;52.00085300;4.17406100;2023-03-30T08:54:50;12.40;99.90
9800;DHT22;4939;52.00085300;4.17406100;2023-03-30T09:03:12;12.70;99.90
9800;DHT22;4939;52.00085300;4.17406100;2023-03-30T09:06:22;12.50;99.90
9800;DHT22;4939;52.00085300;4.17406100;2023-03-30T09:08:51;12.40;99.90
9800;DHT22;4939;52.00085300;4.17406100;2023-03-30T09:11:28;12.40;99.90
9800;DHT22;4939;52.00085300;4.17406100;2023-03-30T09:14:00;12.50;99.90
9800;DHT22;4939;52.00085300;4.17406100;2023-03-30T09:16:39;12.50;99.90
9800;DHT22;4939;52.00085300;4.17406100;2023-03-30T09:19:13;12.60;99.90
9800;DHT22;4939;52.00085300;4.17406100;2023-03-30T09:21:41;12.60;99.90
9800;DHT22;4939;52.00085300;4.17406100;2023-03-30T09:24:13;12.70;99.90
9800;DHT22;4939;52.00085300;4.17406100;2023-03-30T09:26:58;12.70;99.90
9800;DHT22;4939;52.00085300;4.17406100;2023-03-30T09:29:31;12.70;99.90
9800;DHT22;4939;52.00085300;4.17406100;2023-03-30T09:32:08;12.80;99.90
9800;DHT22;4939;52.00085300;4.17406100;2023-03-30T09:34:52;13.00;99.90
9800;DHT22;4939;52.00085300;4.17406100;2023-03-30T09:37:19;13.20;99.90
9800;DHT22;4939;52.00085300;4.17406100;2023-03-30T09:39:47;13.30;99.90
9800;DHT22;4939;52.00085300;4.17406100;2023-03-30T09:42:46;13.50;99.90
9800;DHT22;4939;52.00085300;4.17406100;2023-03-30T09:45:24;13.50;99.90
9800;DHT22;4939;52.00085300;4.17406100;2023-03-30T09:47:53;13.50;99.90
9800;DHT22;4939;52.00085300;4.17406100;2023-03-30T09:50:22;13.60;99.90
9800;DHT22;4939;52.00085300;4.17406100;2023-03-30T09:52:59;13.70;99.90
9800;DHT22;4939;52.00085300;4.17406100;2023-03-30T09:55:31;13.50;99.90
9800;DHT22;4939;52.00085300;4.17406100;2023-03-30T09:58:16;13.40;99.90
9800;DHT22;4939;52.00085300;4.17406100;2023-03-30T10:00:43;13.00;99.90
9800;DHT22;4939;52.00085300;4.17406100;2023-03-30T10:03:19;12.90;99.90
9800;DHT22;4939;52.00085300;4.17406100;2023-03-30T10:06:08;13.00;99.90
9800;DHT22;4939;52.00085300;4.17406100;2023-03-30T10:08:57;13.30;99.90
9800;DHT22;4939;52.00085300;4.17406100;2023-03-30T10:14:00;13.60;99.90
9800;DHT22;4939;52.00085300;4.17406100;2023-03-30T10:16:29;13.60;99.90
9800;DHT22;4939;52.00085300;4.17406100;2023-03-30T10:19:00;13.70;99.90
9800;DHT22;4939;52.00085300;4.17406100;2023-03-30T10:21:30;13.70;99.90
9800;DHT22;4939;52.00085300;4.17406100;2023-03-30T10:24:20;13.70;99.90
9800;DHT22;4939;52.00085300;4.17406100;2023-03-30T10:26:50;13.60;99.90
9800;DHT22;4939;52.00085300;4.17406100;2023-03-30T10:29:17;13.70;99.90
9800;DHT22;4939;52.00085300;4.17406100;2023-03-30T10:31:45;13.80;99.90
9800;DHT22;4939;52.00085300;4.17406100;2023-03-30T10:34:31;13.90;99.90
9800;DHT22;4939;52.00085300;4.17406100;2023-03-30T10:36:58;13.60;99.90
9800;DHT22;4939;52.00085300;4.17406100;2023-03-30T10:39:28;13.50;99.90
9800;DHT22;4939;52.00085300;4.17406100;2023-03-30T10:41:55;13.20;99.90
9800;DHT22;4939;52.00085300;4.17406100;2023-03-30T10:44:33;13.00;99.90
9800;DHT22;4939;52.00085300;4.17406100;2023-03-30T10:55:53;12.70;99.90
9800;DHT22;4939;52.00085300;4.17406100;2023-03-30T10:58:34;12.70;99.90
9800;DHT22;4939;52.00085300;4.17406100;2023-03-30T11:01:16;12.70;99.90
9800;DHT22;4939;52.00085300;4.17406100;2023-03-30T11:03:50;12.70;99.90
9800;DHT22;4939;52.00085300;4.17406100;2023-03-30T11:06:28;12.70;99.90
9800;DHT22;4939;52.00085300;4.17406100;2023-03-30T11:08:58;12.60;99.90
9800;DHT22;4939;52.00085300;4.17406100;2023-03-30T11:11:46;13.00;99.90
9800;DHT22;4939;52.00085300;4.17406100;2023-03-30T11:14:23;12.60;99.90
9800;DHT22;4939;52.00085300;4.17406100;2023-03-30T11:16:56;12.50;99.90
9800;DHT22;4939;52.00085300;4.17406100;2023-03-30T11:19:30;12.40;99.90
9800;DHT22;4939;52.00085300;4.17406100;2023-03-30T11:22:03;12.40;99.90
9800;DHT22;4939;52.00085300;4.17406100;2023-03-30T11:24:33;12.30;99.90
9800;DHT22;4939;52.00085300;4.17406100;2023-03-30T11:29:52;12.30;99.90
9800;DHT22;4939;52.00085300;4.17406100;2023-03-30T11:32:43;12.40;99.90
9800;DHT22;4939;52.00085300;4.17406100;2023-03-30T11:40:42;12.30;99.90
9800;DHT22;4939;52.00085300;4.17406100;2023-03-30T11:43:15;12.20;99.90
9800;DHT22;4939;52.00085300;4.17406100;2023-03-30T11:45:58;12.10;99.90
9800;DHT22;4939;52.00085300;4.17406100;2023-03-30T11:54:30;11.80;99.90
9800;DHT22;4939;52.00085300;4.17406100;2023-03-30T11:57:43;11.80;99.90
9800;DHT22;4939;52.00085300;4.17406100;2023-03-30T12:00:41;11.70;99.90
9800;DHT22;4939;52.00085300;4.17406100;2023-03-30T12:03:15;11.80;99.90
9800;DHT22;4939;52.00085300;4.17406100;2023-03-30T12:05:46;11.70;99.90
9800;DHT22;4939;52.00085300;4.17406100;2023-03-30T12:08:43;11.70;99.90
9800;DHT22;4939;52.00085300;4.17406100;2023-03-30T12:13:48;11.60;99.90
9800;DHT22;4939;52.00085300;4.17406100;2023-03-30T12:16:19;11.70;99.90
9800;DHT22;4939;52.00085300;4.17406100;2023-03-30T12:21:34;11.90;99.90
9800;DHT22;4939;52.00085300;4.17406100;2023-03-30T12:27:02;12.10;99.90
9800;DHT22;4939;52.00085300;4.17406100;2023-03-30T12:29:52;12.10;99.90
9800;DHT22;4939;52.00085300;4.17406100;2023-03-30T12:32:27;12.20;99.90
9800;DHT22;4939;52.00085300;4.17406100;2023-03-30T12:34:53;12.20;99.90
9800;DHT22;4939;52.00085300;4.17406100;2023-03-30T12:37:31;12.40;99.90
9800;DHT22;4939;52.00085300;4.17406100;2023-03-30T12:40:19;12.30;99.90
9800;DHT22;4939;52.00085300;4.17406100;2023-03-30T12:43:22;12.40;99.90
9800;DHT22;4939;52.00085300;4.17406100;2023-03-30T12:46:18;12.50;99.90
9800;DHT22;4939;52.00085300;4.17406100;2023-03-30T12:57:26;12.70;99.90
9800;DHT22;4939;52.00085300;4.17406100;2023-03-30T13:03:25;12.90;99.90
9800;DHT22;4939;52.00085300;4.17406100;2023-03-30T13:05:55;12.90;99.90
9800;DHT22;4939;52.00085300;4.17406100;2023-03-30T13:08:40;13.00;99.90
9800;DHT22;4939;52.00085300;4.17406100;2023-03-30T13:11:12;13.00;99.90
9800;DHT22;4939;52.00085300;4.17406100;2023-03-30T13:13:53;13.10;99.90
9800;DHT22;4939;52.00085300;4.17406100;2023-03-30T13:16:46;13.20;99.90
9800;DHT22;4939;52.00085300;4.17406100;2023-03-30T13:21:55;13.10;99.90
9800;DHT22;4939;52.00085300;4.17406100;2023-03-30T13:27:27;13.20;99.90
9800;DHT22;4939;52.00085300;4.17406100;2023-03-30T13:38:32;13.60;99.90
9800;DHT22;4939;52.00085300;4.17406100;2023-03-30T13:41:33;13.60;99.90
9800;DHT22;4939;52.00085300;4.17406100;2023-03-30T13:47:15;13.50;99.90
9800;DHT22;4939;52.00085300;4.17406100;2023-03-30T13:49:57;13.70;99.90
9800;DHT22;4939;52.00085300;4.17406100;2023-03-30T13:52:41;13.70;99.90
9800;DHT22;4939;52.00085300;4.17406100;2023-03-30T13:55:15;13.90;99.90
9800;DHT22;4939;52.00085300;4.17406100;2023-03-30T13:57:42;14.10;99.90
9800;DHT22;4939;52.00085300;4.17406100;2023-03-30T14:03:29;14.00;99.90
9800;DHT22;4939;52.00085300;4.17406100;2023-03-30T14:06:06;13.90;99.90
9800;DHT22;4939;52.00085300;4.17406100;2023-03-30T14:08:36;13.80;99.90
9800;DHT22;4939;52.00085300;4.17406100;2023-03-30T14:11:39;13.70;99.90
9800;DHT22;4939;52.00085300;4.17406100;2023-03-30T14:13:56;13.70;99.90
9800;DHT22;4939;52.00085300;4.17406100;2023-03-30T14:16:31;14.00;99.90
9800;DHT22;4939;52.00085300;4.17406100;2023-03-30T14:21:43;14.20;99.90
9800;DHT22;4939;52.00085300;4.17406100;2023-03-30T14:24:16;14.30;99.90
9800;DHT22;4939;52.00085300;4.17406100;2023-03-30T14:26:42;14.40;99.90
9800;DHT22;4939;52.00085300;4.17406100;2023-03-30T14:29:15;14.40;99.90
9800;DHT22;4939;52.00085300;4.17406100;2023-03-30T14:31:42;14.40;99.90
9800;DHT22;4939;52.00085300;4.17406100;2023-03-30T14:34:28;14.50;99.90
9800;DHT22;4939;52.00085300;4.17406100;2023-03-30T14:37:05;14.40;99.90
9800;DHT22;4939;52.00085300;4.17406100;2023-03-30T14:39:33;14.30;99.90
9800;DHT22;4939;52.00085300;4.17406100;2023-03-30T14:42:19;14.30;99.90
9800;DHT22;4939;52.00085300;4.17406100;2023-03-30T14:44:47;14.20;99.90
9800;DHT22;4939;52.00085300;4.17406100;2023-03-30T14:47:17;14.10;99.90
9800;DHT22;4939;52.00085300;4.17406100;2023-03-30T14:49:43;14.30;99.90
9800;DHT22;4939;52.00085300;4.17406100;2023-03-30T14:52:20;14.20;99.90
9800;DHT22;4939;52.00085300;4.17406100;2023-03-30T14:54:48;14.30;99.90
9800;DHT22;4939;52.00085300;4.17406100;2023-03-30T14:57:27;14.40;99.90
9800;DHT22;4939;52.00085300;4.17406100;2023-03-30T14:59:56;14.40;99.90
9800;DHT22;4939;52.00085300;4.17406100;2023-03-30T15:02:26;14.60;99.90
9800;DHT22;4939;52.00085300;4.17406100;2023-03-30T15:04:55;14.60;99.90
9800;DHT22;4939;52.00085300;4.17406100;2023-03-30T15:07:21;14.50;99.90
9800;DHT22;4939;52.00085300;4.17406100;2023-03-30T15:09:53;14.60;99.90
9800;DHT22;4939;52.00085300;4.17406100;2023-03-30T15:12:25;14.50;99.90
9800;DHT22;4939;52.00085300;4.17406100;2023-03-30T15:14:55;14.70;99.90
9800;DHT22;4939;52.00085300;4.17406100;2023-03-30T15:17:24;14.40;99.90
9800;DHT22;4939;52.00085300;4.17406100;2023-03-30T15:19:51;14.30;99.90
9800;DHT22;4939;52.00085300;4.17406100;2023-03-30T15:22:36;14.40;99.90
9800;DHT22;4939;52.00085300;4.17406100;2023-03-30T15:25:06;14.60;99.90
9800;DHT22;4939;52.00085300;4.17406100;2023-03-30T15:27:35;14.70;99.90
9800;DHT22;4939;52.00085300;4.17406100;2023-03-30T15:30:01;14.80;99.90
9800;DHT22;4939;52.00085300;4.17406100;2023-03-30T15:32:37;14.80;99.90
9800;DHT22;4939;52.00085300;4.17406100;2023-03-30T15:35:05;14.70;99.90
9800;DHT22;4939;52.00085300;4.17406100;2023-03-30T15:37:32;14.70;99.90
9800;DHT22;4939;52.00085300;4.17406100;2023-03-30T15:39:58;14.60;99.90
9800;DHT22;4939;52.00085300;4.17406100;2023-03-30T15:42:28;14.40;99.90
9800;DHT22;4939;52.00085300;4.17406100;2023-03-30T15:45:11;14.40;99.90
9800;DHT22;4939;52.00085300;4.17406100;2023-03-30T15:47:38;14.30;99.90
9800;DHT22;4939;52.00085300;4.17406100;2023-03-30T15:50:11;14.50;99.90
9800;DHT22;4939;52.00085300;4.17406100;2023-03-30T15:52:41;14.30;99.90
9800;DHT22;4939;52.00085300;4.17406100;2023-03-30T15:55:20;14.50;99.90
9800;DHT22;4939;52.00085300;4.17406100;2023-03-30T15:57:48;14.50;99.90
9800;DHT22;4939;52.00085300;4.17406100;2023-03-30T16:00:21;14.40;99.90